Weather History for Prairie Du Chien, WI

Change the Weather History Date:

Wednesday, November 21, 2012

  Actual Average Record
Temperature  
Mean Temperature 50 °F -  
Max Temperature 64 °F 42 °F 69 °F (1990)
Min Temperature 37 °F 25 °F -3 °F (1964)
Degree Days  
Heating Degree Days 14    
Moisture  
Dew Point 41 °F    
Average Humidity 75    
Maximum Humidity 100    
Minimum Humidity 42    
Precipitation  
Precipitation 0.00 in - - ()
Sea Level Pressure  
Sea Level Pressure 30.06 in    
Wind  
Wind Speed 6 mph (NW)    
Max Wind Speed 6 mph    
Max Gust Speed -    
Visibility 6 miles    
Events Fog    
Averages and records for this station are not official NWS values.
T = Trace of Precipitation, MM = Missing Value Source: NWS Daily Summary

Daily Weather History Graph

Daily Weather History Graph

Search for Another Location

Airport:

Trip Planner

Search our weather history database for the weather conditions in past years. The results will help you decide how hot, cold, wet, or windy it might be!

Date:

Astronomy

Nov. 21, 2012 Rise Set
Actual Time 7:05 AM CST 4:35 PM CST
Civil Twilight 6:33 AM CST 5:06 PM CST
Nautical Twilight 5:59 AM CST 5:41 PM CST
Astronomical Twilight 5:25 AM CST 6:15 PM CST
Moon 1:00 PM CST 12:14 AM CST
Length of Visible Light 10h 32m
Length of Day
9h 30m
First Quarter, 62% of the Moon is Illuminated
Nov 21
First Quarter
Nov 28
Full
Dec 6
Last Quarter
Dec 13
New
Dec 19
First Quarter

Hourly Weather History & Observations

Time (CST) Temp. Windchill Dew Point Humidity Pressure Visibility Wind Dir Wind Speed Gust Speed Precip Events Conditions
12:15 AM 39.2 °F - 39.2 °F 100% 30.17 in 0.2 mi North - - N/A Fog Fog
12:35 AM 39.2 °F - 39.2 °F 100% 30.17 in 0.2 mi North - - N/A Fog Fog
12:55 AM 39.2 °F - 39.2 °F 100% 30.16 in 0.2 mi North - - N/A Fog Fog
1:15 AM 39.2 °F - 39.2 °F 100% 30.16 in 0.2 mi North - - N/A Fog Fog
1:35 AM 39.2 °F - 39.2 °F 100% 30.15 in 0.2 mi North - - N/A Fog Fog
1:55 AM 39.2 °F - 39.2 °F 100% 30.15 in 0.2 mi North - - N/A Fog Fog
2:15 AM 39.2 °F - 39.2 °F 100% 30.16 in 0.2 mi North - - N/A Fog Fog
2:35 AM 39.2 °F - 39.2 °F 100% 30.17 in 0.2 mi North - - N/A Fog Fog
2:55 AM 39.2 °F - 39.2 °F 100% 30.17 in 0.2 mi North - - N/A Fog Fog
3:15 AM 39.2 °F 35.0 °F 37.4 °F 93% 30.17 in 0.2 mi NW 5.8 mph - N/A Fog Fog
3:35 AM 39.2 °F - 37.4 °F 93% 30.15 in 0.5 mi North - - N/A Fog Fog
3:55 AM 37.4 °F - 37.4 °F 100% 30.16 in 0.5 mi North - - N/A Fog Fog
4:15 AM 39.2 °F - 37.4 °F 93% 30.16 in 0.5 mi North - - N/A Fog Fog
4:35 AM 39.2 °F - 37.4 °F 93% 30.15 in 0.8 mi North - - N/A   Overcast
4:55 AM 39.2 °F - 37.4 °F 93% 30.15 in 0.5 mi North - - N/A Fog Fog
5:15 AM 39.2 °F - 37.4 °F 93% 30.15 in 0.8 mi North - - N/A   Overcast
5:35 AM 39.2 °F - 37.4 °F 93% 30.14 in 0.8 mi North - - N/A   Overcast
5:55 AM 39.2 °F - 37.4 °F 93% 30.14 in 1.2 mi North - - N/A   Overcast
6:15 AM 37.4 °F - 37.4 °F 100% 30.14 in 1.8 mi North - - N/A   Overcast
6:35 AM 37.4 °F - 37.4 °F 100% 30.14 in 1.5 mi North - - N/A   Mostly Cloudy
6:55 AM 37.4 °F - 35.6 °F 93% 30.14 in 2.0 mi North - - N/A   Scattered Clouds
7:15 AM 37.4 °F - 35.6 °F 93% 30.14 in 2.5 mi North - - N/A   Clear
7:35 AM 37.4 °F - 35.6 °F 93% 30.14 in 1.5 mi North - - N/A   Mist
7:55 AM 37.4 °F - 37.4 °F 100% 30.14 in 1.5 mi North - - N/A   Mist
8:15 AM 37.4 °F - 37.4 °F 100% 30.14 in 2.5 mi North - - N/A   Clear
8:35 AM 39.2 °F - 39.2 °F 100% 30.14 in 3.0 mi North - - N/A   Clear
8:55 AM 41.0 °F - 41.0 °F 100% 30.13 in 5.0 mi North - - N/A   Clear
9:15 AM 42.8 °F - 42.8 °F 100% 30.13 in 7.0 mi North - - N/A   Clear
9:35 AM 44.6 °F - 42.8 °F 93% 30.13 in 5.0 mi North - - N/A   Clear
9:55 AM 46.4 °F - 41.0 °F 81% 30.13 in 7.0 mi North - - N/A   Clear
10:15 AM 48.2 °F - 41.0 °F 76% 30.12 in 10.0 mi North - - N/A   Clear
11:15 AM 53.6 °F - 42.8 °F 67% 30.09 in 10.0 mi North - - N/A   Clear
11:35 AM 53.6 °F - 42.8 °F 67% 30.08 in 10.0 mi North - - N/A   Clear
11:55 AM 55.4 °F - 42.8 °F 63% 30.06 in 10.0 mi North - - N/A   Clear
12:15 PM 57.2 °F - 41.0 °F 55% 30.05 in 10.0 mi North - - N/A   Clear
12:35 PM 59.0 °F - 42.8 °F 55% 30.04 in 10.0 mi North - - N/A   Clear
12:55 PM 59.0 °F - 41.0 °F 51% 30.04 in 10.0 mi North - - N/A   Clear
1:15 PM 60.8 °F - 41.0 °F 48% 30.03 in 10.0 mi North - - N/A   Clear
1:35 PM 60.8 °F - 41.0 °F 48% 30.02 in 10.0 mi North - - N/A   Clear
1:55 PM 62.6 °F - 41.0 °F 45% 30.01 in 10.0 mi North - - N/A   Clear
2:15 PM 62.6 °F - 41.0 °F 45% 30.00 in 10.0 mi North - - N/A   Clear
2:35 PM 64.4 °F - 41.0 °F 42% 29.99 in 10.0 mi North - - N/A   Clear
2:55 PM 64.4 °F - 41.0 °F 42% 29.99 in 10.0 mi North - - N/A   Clear
3:15 PM 62.6 °F - 41.0 °F 45% 29.99 in 10.0 mi North - - N/A   Clear
3:35 PM 62.6 °F - 42.8 °F 48% 29.99 in 10.0 mi North - - N/A   Clear
3:55 PM 62.6 °F - 42.8 °F 48% 29.99 in 10.0 mi North - - N/A   Clear
4:15 PM 60.8 °F - 42.8 °F 52% 29.99 in 10.0 mi North - - N/A   Clear
4:35 PM 60.8 °F - 42.8 °F 52% 29.98 in 10.0 mi North - - N/A   Clear
4:55 PM 59.0 °F - 42.8 °F 55% 29.98 in 10.0 mi North - - N/A   Clear
5:15 PM 59.0 °F - 42.8 °F 55% 29.98 in 10.0 mi North - - N/A   Clear
5:35 PM 59.0 °F - 42.8 °F 55% 29.98 in 10.0 mi North - - N/A   Clear
5:55 PM 59.0 °F - 42.8 °F 55% 29.98 in 10.0 mi North - - N/A   Clear
6:15 PM 57.2 °F - 42.8 °F 59% 29.98 in 10.0 mi North - - N/A   Clear
6:35 PM 57.2 °F - 42.8 °F 59% 29.97 in 10.0 mi North - - N/A   Clear
6:55 PM 57.2 °F - 42.8 °F 59% 29.97 in 10.0 mi North - - N/A   Clear
7:15 PM 55.4 °F - 42.8 °F 63% 29.96 in 10.0 mi North - - N/A   Clear
7:35 PM 55.4 °F - 42.8 °F 63% 29.97 in 10.0 mi North - - N/A   Clear
7:55 PM 55.4 °F - 42.8 °F 63% 29.97 in 10.0 mi North - - N/A   Clear
8:15 PM 55.4 °F - 42.8 °F 63% 29.97 in 10.0 mi North - - N/A   Clear
8:35 PM 55.4 °F - 42.8 °F 63% 29.97 in 10.0 mi North - - N/A   Clear
8:55 PM 55.4 °F - 42.8 °F 63% 29.97 in 10.0 mi North - - N/A   Clear
9:15 PM 53.6 °F - 42.8 °F 67% 29.97 in 10.0 mi North - - N/A   Clear
9:35 PM 53.6 °F - 42.8 °F 67% 29.97 in 10.0 mi North - - N/A   Clear
9:55 PM 53.6 °F - 42.8 °F 67% 29.97 in 10.0 mi North - - N/A   Clear
10:15 PM 53.6 °F - 42.8 °F 67% 29.96 in 10.0 mi North - - N/A   Clear
10:35 PM 53.6 °F - 42.8 °F 67% 29.96 in 10.0 mi North - - N/A   Clear
10:55 PM 53.6 °F - 42.8 °F 67% 29.95 in 10.0 mi North - - N/A   Clear
11:15 PM 53.6 °F - 42.8 °F 67% 29.95 in 10.0 mi North - - N/A   Clear
11:35 PM 53.6 °F - 42.8 °F 67% 29.94 in 10.0 mi North - - N/A   Clear
11:55 PM 53.6 °F - 42.8 °F 67% 29.93 in 10.0 mi North - - N/A   Clear